createdAt,value
2022-09-28T00:01:07.311Z,4.40
2022-09-28T00:03:34.935Z,4.20
2022-09-28T00:06:05.007Z,4.50
2022-09-28T00:08:32.599Z,4.50
2022-09-28T00:10:59.415Z,4.40
2022-09-28T00:13:26.637Z,4.60
2022-09-28T00:16:11.138Z,4.80
2022-09-28T00:18:38.283Z,4.60
2022-09-28T00:21:17.245Z,3.90
2022-09-28T00:24:04.322Z,4.50
2022-09-28T00:26:33.304Z,4.50
2022-09-28T00:29:01.856Z,5.20
2022-09-28T00:31:32.165Z,5.60
2022-09-28T00:34:01.743Z,4.60
2022-09-28T00:36:30.963Z,4.60
2022-09-28T00:38:58.858Z,5.10
2022-09-28T00:41:27.645Z,5.80
2022-09-28T00:44:26.503Z,6.00
2022-09-28T00:46:56.636Z,6.20
2022-09-28T00:50:09.886Z,5.80
2022-09-28T00:52:45.628Z,8.30
2022-09-28T00:55:17.162Z,7.30
2022-09-28T00:57:50.133Z,9.00
2022-09-28T01:00:17.624Z,9.40
2022-09-28T01:02:46.901Z,6.80
2022-09-28T01:05:14.557Z,6.00
2022-09-28T01:07:44.178Z,5.60
2022-09-28T01:10:11.342Z,5.10
2022-09-28T01:12:38.228Z,4.90
2022-09-28T01:15:06.033Z,5.10
2022-09-28T01:18:08.427Z,5.50
2022-09-28T01:20:58.218Z,5.10
2022-09-28T01:28:37.707Z,5.20
2022-09-28T01:31:14.068Z,8.80
2022-09-28T01:33:50.428Z,5.40
2022-09-28T01:36:36.285Z,5.80
2022-09-28T01:39:15.859Z,5.90
2022-09-28T01:41:48.214Z,6.40
2022-09-28T01:44:19.387Z,6.00
2022-09-28T01:46:48.870Z,5.50
2022-09-28T01:49:34.216Z,6.80
2022-09-28T01:52:27.241Z,6.50
2022-09-28T01:55:00.987Z,6.10
2022-09-28T01:57:32.774Z,5.50
2022-09-28T02:00:06.801Z,4.40
2022-09-28T02:03:04.937Z,5.40
2022-09-28T02:05:42.080Z,5.00
2022-09-28T02:08:24.897Z,4.60
2022-09-28T02:11:13.112Z,4.40
2022-09-28T02:13:45.883Z,4.30
2022-09-28T02:16:30.791Z,3.70
2022-09-28T02:18:58.250Z,3.40
2022-09-28T02:21:36.728Z,4.10
2022-09-28T02:24:14.870Z,4.20
2022-09-28T02:26:48.683Z,5.10
2022-09-28T02:29:16.566Z,4.90
2022-09-28T02:31:43.877Z,4.10
2022-09-28T02:34:10.691Z,4.40
2022-09-28T02:36:37.869Z,4.40
2022-09-28T02:39:04.873Z,4.70
2022-09-28T02:41:53.263Z,4.50
2022-09-28T02:44:34.861Z,5.30
2022-09-28T02:47:04.598Z,4.60
2022-09-28T02:49:48.054Z,3.80
2022-09-28T02:52:50.161Z,4.20
2022-09-28T02:55:38.334Z,5.80
2022-09-28T02:58:11.565Z,5.30
2022-09-28T03:00:49.177Z,6.40
2022-09-28T03:03:47.598Z,5.60
2022-09-28T03:06:26.324Z,7.90
2022-09-28T03:09:00.857Z,8.00
2022-09-28T03:11:39.383Z,8.50
2022-09-28T03:14:06.878Z,8.00
2022-09-28T03:16:45.319Z,6.70
2022-09-28T03:19:13.005Z,6.10
2022-09-28T03:21:40.765Z,6.50
2022-09-28T03:24:10.543Z,4.60
2022-09-28T03:26:40.471Z,4.60
2022-09-28T03:29:07.359Z,4.90
2022-09-28T03:31:34.724Z,7.40
2022-09-28T03:34:02.135Z,5.70
2022-09-28T03:36:28.958Z,6.30
2022-09-28T03:38:55.988Z,6.20
2022-09-28T03:41:24.482Z,5.80
2022-09-28T03:43:51.658Z,8.60
2022-09-28T03:46:18.521Z,12.40
2022-09-28T03:48:48.061Z,25.80
2022-09-28T03:51:14.857Z,15.00
2022-09-28T03:53:41.799Z,18.80
2022-09-28T03:56:12.871Z,17.80
2022-09-28T03:58:40.185Z,7.40
2022-09-28T04:01:16.887Z,3.20
2022-09-28T04:03:44.924Z,2.30
2022-09-28T04:06:12.759Z,2.00
2022-09-28T04:08:39.922Z,2.00
2022-09-28T04:11:06.933Z,2.00
2022-09-28T04:13:33.877Z,1.70
2022-09-28T04:16:01.482Z,1.80
2022-09-28T04:18:32.507Z,1.60
2022-09-28T04:21:18.363Z,1.60
2022-09-28T04:24:00.514Z,1.60
2022-09-28T04:26:27.990Z,1.90
2022-09-28T04:29:13.539Z,1.90
2022-09-28T04:31:50.429Z,1.80
2022-09-28T04:34:19.924Z,1.70
2022-09-28T04:36:47.697Z,2.70
2022-09-28T04:39:17.052Z,2.10
2022-09-28T04:41:49.671Z,1.90
2022-09-28T04:44:16.982Z,2.30
2022-09-28T04:46:46.913Z,2.10
2022-09-28T04:49:29.091Z,3.10
2022-09-28T04:52:09.172Z,12.60
2022-09-28T04:54:36.174Z,47.30
2022-09-28T04:57:05.332Z,4.90
2022-09-28T04:59:32.906Z,16.00
2022-09-28T05:02:01.238Z,12.80
2022-09-28T05:04:47.063Z,8.20
2022-09-28T05:07:41.900Z,3.30
2022-09-28T05:10:09.273Z,4.10
2022-09-28T05:12:37.915Z,3.40
2022-09-28T05:15:05.247Z,2.50
2022-09-28T05:17:32.094Z,2.60
2022-09-28T05:20:19.124Z,3.00
2022-09-28T05:22:46.198Z,3.20
2022-09-28T05:25:13.439Z,3.10
2022-09-28T05:28:07.675Z,3.20
2022-09-28T05:30:42.349Z,2.80
2022-09-28T05:33:27.262Z,2.20
2022-09-28T05:36:11.456Z,2.70
2022-09-28T05:38:43.481Z,3.80
2022-09-28T05:41:14.989Z,2.80
2022-09-28T05:43:50.145Z,3.20
2022-09-28T05:46:22.791Z,3.00
2022-09-28T05:48:54.090Z,3.80
2022-09-28T05:51:25.642Z,6.20
2022-09-28T05:54:06.886Z,8.80
2022-09-28T06:40:02.186Z,2.50
2022-09-28T07:00:28.981Z,8.50
2022-09-28T07:03:25.725Z,2.40
2022-09-28T07:06:35.128Z,13.30
2022-09-28T07:09:44.948Z,4.60
2022-09-28T07:12:39.481Z,3.20
2022-09-28T07:15:31.931Z,3.80
2022-09-28T07:18:11.654Z,3.70
2022-09-28T07:20:52.180Z,4.70
2022-09-28T07:23:42.956Z,3.50
2022-09-28T07:26:57.233Z,2.70
2022-09-28T07:29:46.430Z,2.50
2022-09-28T07:32:47.593Z,2.30
2022-09-28T07:35:37.936Z,2.70
2022-09-28T07:38:10.956Z,2.20
2022-09-28T07:41:09.533Z,2.80
2022-09-28T07:43:45.075Z,12.50
2022-09-28T07:49:36.492Z,2.80
2022-09-28T07:52:47.154Z,5.80
2022-09-28T07:55:23.530Z,2.80
2022-09-28T07:59:03.332Z,2.00
2022-09-28T08:02:11.620Z,3.10
2022-09-28T08:04:43.123Z,2.60
2022-09-28T08:07:34.043Z,2.90
2022-09-28T08:10:24.916Z,1.60
2022-09-28T08:13:27.087Z,1.60
2022-09-28T08:17:09.074Z,2.40
2022-09-28T08:20:46.945Z,5.70
2022-09-28T08:23:47.601Z,2.70
2022-09-28T08:26:25.439Z,3.00
2022-09-28T08:28:55.980Z,8.40
2022-09-28T08:32:09.939Z,1.90
2022-09-28T08:34:57.458Z,1.80
2022-09-28T08:38:06.576Z,1.20
2022-09-28T08:41:19.912Z,1.40
2022-09-28T08:44:26.157Z,1.50
2022-09-28T08:47:52.996Z,1.20
2022-09-28T08:50:36.283Z,2.90
2022-09-28T08:53:35.161Z,1.70
2022-09-28T08:56:31.480Z,1.80
2022-09-28T08:59:04.954Z,1.40
2022-09-28T09:01:38.227Z,2.00
2022-09-28T09:04:15.127Z,8.80
2022-09-28T09:07:25.913Z,11.10
2022-09-28T09:10:44.103Z,8.60
2022-09-28T09:13:35.746Z,3.40
2022-09-28T09:16:35.783Z,1.70
2022-09-28T09:19:57.414Z,2.10
2022-09-28T09:22:51.123Z,1.80
2022-09-28T09:25:40.191Z,1.80
2022-09-28T09:28:44.364Z,7.50
2022-09-28T09:32:11.438Z,3.60
2022-09-28T09:36:06.044Z,3.10
2022-09-28T09:39:37.172Z,3.30
2022-09-28T09:43:18.219Z,1.60
2022-09-28T09:46:14.771Z,2.00
2022-09-28T09:49:17.720Z,5.30
2022-09-28T09:52:01.101Z,2.00
2022-09-28T09:54:40.253Z,3.80
2022-09-28T09:57:42.558Z,3.40
2022-09-28T10:00:32.661Z,4.30
2022-09-28T10:03:17.123Z,4.00
2022-09-28T10:05:58.693Z,9.90
2022-09-28T10:09:03.776Z,10.10
2022-09-28T10:11:47.336Z,1.90
2022-09-28T10:14:24.370Z,2.20
2022-09-28T10:20:14.206Z,1.10
2022-09-28T10:23:23.874Z,0.80
2022-09-28T10:26:07.469Z,1.00
2022-09-28T10:28:46.299Z,1.10
2022-09-28T10:31:39.371Z,0.80
2022-09-28T10:34:16.923Z,0.30
2022-09-28T10:36:50.094Z,0.90
2022-09-28T10:39:29.257Z,2.40
2022-09-28T10:42:02.251Z,0.60
2022-09-28T10:44:54.587Z,0.40
2022-09-28T10:47:41.196Z,0.60
2022-09-28T10:50:26.071Z,1.00
2022-09-28T10:53:17.592Z,1.20
2022-09-28T10:56:27.245Z,0.90
2022-09-28T10:59:23.855Z,0.60
2022-09-28T11:01:58.879Z,0.80
2022-09-28T11:04:36.614Z,0.50
2022-09-28T11:07:18.251Z,0.60
2022-09-28T11:09:49.323Z,1.50
2022-09-28T11:12:21.273Z,1.10
2022-09-28T11:14:55.099Z,2.10
2022-09-28T11:17:42.739Z,0.90
2022-09-28T11:20:28.505Z,2.90
2022-09-28T11:23:04.101Z,1.70
2022-09-28T11:25:33.348Z,1.70
2022-09-28T11:28:03.968Z,3.30
2022-09-28T11:30:48.087Z,2.40
2022-09-28T11:33:34.786Z,2.50
2022-09-28T11:37:12.445Z,1.00
2022-09-28T11:39:46.791Z,1.90
2022-09-28T11:42:23.934Z,2.40
2022-09-28T11:45:28.525Z,0.80
2022-09-28T11:48:07.557Z,0.70
2022-09-28T11:50:45.958Z,1.20
2022-09-28T11:53:31.028Z,1.20
2022-09-28T11:56:29.397Z,2.50
2022-09-28T11:59:16.936Z,1.60
2022-09-28T12:02:02.742Z,6.00
2022-09-28T12:05:07.304Z,1.10
2022-09-28T12:07:44.190Z,1.70
2022-09-28T12:10:36.764Z,2.90
2022-09-28T12:13:22.199Z,1.20
2022-09-28T12:16:37.548Z,3.10
2022-09-28T12:19:01.692Z,2.20
2022-09-28T12:21:52.844Z,1.10
2022-09-28T12:24:28.832Z,1.70
2022-09-28T12:27:04.709Z,2.90
2022-09-28T12:29:40.671Z,0.80
2022-09-28T12:32:30.260Z,2.80
2022-09-28T12:34:57.488Z,0.90
2022-09-28T12:37:41.152Z,2.00
2022-09-28T12:40:15.038Z,1.40
2022-09-28T12:42:45.543Z,2.00
2022-09-28T12:46:06.810Z,0.60
2022-09-28T12:52:30.219Z,0.50
2022-09-28T12:55:21.665Z,1.00
2022-09-28T12:57:55.599Z,0.60
2022-09-28T13:00:25.224Z,0.40
2022-09-28T13:03:13.256Z,0.40
2022-09-28T13:05:58.269Z,0.90
2022-09-28T13:08:27.923Z,0.70
2022-09-28T13:11:32.726Z,0.90
2022-09-28T13:14:33.842Z,1.70
2022-09-28T13:17:19.558Z,1.40
2022-09-28T13:20:21.407Z,0.90
2022-09-28T13:23:03.464Z,0.90
2022-09-28T13:25:34.244Z,1.00
2022-09-28T13:28:04.522Z,0.80
2022-09-28T13:30:40.910Z,0.60
2022-09-28T13:33:18.363Z,0.40
2022-09-28T13:35:46.113Z,0.40
2022-09-28T13:38:21.078Z,0.60
2022-09-28T13:41:03.332Z,0.90
2022-09-28T13:43:48.294Z,0.90
2022-09-28T13:47:00.705Z,0.80
2022-09-28T13:49:52.015Z,0.80
2022-09-28T13:52:56.511Z,0.60
2022-09-28T13:55:38.771Z,1.00
2022-09-28T13:58:14.081Z,0.80
2022-09-28T14:00:53.267Z,1.20
2022-09-28T14:03:34.095Z,1.00
2022-09-28T14:06:28.717Z,2.00
2022-09-28T14:08:58.374Z,0.80
2022-09-28T14:11:33.662Z,2.20
2022-09-28T14:14:14.020Z,2.40
2022-09-28T14:16:42.195Z,0.90
2022-09-28T14:19:20.221Z,1.00
2022-09-28T14:21:58.945Z,2.20
2022-09-28T14:24:40.931Z,2.70
2022-09-28T14:27:13.610Z,1.30
2022-09-28T14:29:40.959Z,1.70
2022-09-28T14:32:07.758Z,1.90
2022-09-28T14:34:42.061Z,2.10
2022-09-28T14:37:43.315Z,1.80
2022-09-28T14:40:40.036Z,1.30
2022-09-28T14:43:25.328Z,1.00
2022-09-28T14:46:07.940Z,1.20
2022-09-28T14:48:43.634Z,7.30
2022-09-28T14:51:33.294Z,21.40
2022-09-28T14:54:11.964Z,18.50
2022-09-28T14:56:56.492Z,12.10
2022-09-28T14:59:26.081Z,77.00
2022-09-28T15:02:05.849Z,5.40
2022-09-28T15:04:38.657Z,3.60
2022-09-28T15:07:05.702Z,2.00
2022-09-28T15:09:36.657Z,0.60
2022-09-28T15:12:29.398Z,0.50
2022-09-28T15:15:03.161Z,0.90
2022-09-28T15:17:40.084Z,1.80
2022-09-28T15:20:24.065Z,0.80
2022-09-28T15:22:57.787Z,0.90
2022-09-28T15:25:31.167Z,1.80
2022-09-28T15:28:04.062Z,3.20
2022-09-28T15:30:32.913Z,4.90
2022-09-28T15:33:21.527Z,4.50
2022-09-28T15:35:53.509Z,1.10
2022-09-28T15:38:20.411Z,0.80
2022-09-28T15:40:47.814Z,1.40
2022-09-28T15:43:26.356Z,1.60
2022-09-28T15:46:05.976Z,2.20
2022-09-28T15:48:44.427Z,2.30
2022-09-28T15:51:11.469Z,2.40
2022-09-28T15:53:50.730Z,4.00
2022-09-28T15:56:17.698Z,10.90
2022-09-28T15:59:08.837Z,12.90
2022-09-28T16:01:41.611Z,19.60
2022-09-28T16:04:37.904Z,12.00
2022-09-28T16:07:20.913Z,1.40
2022-09-28T16:09:56.628Z,4.60
2022-09-28T16:12:41.373Z,4.80
2022-09-28T16:15:37.085Z,14.30
2022-09-28T16:18:17.539Z,14.20
2022-09-28T16:20:47.518Z,7.60
2022-09-28T16:23:23.655Z,6.70
2022-09-28T16:25:58.880Z,1.60
2022-09-28T16:28:28.831Z,1.90
2022-09-28T16:31:27.845Z,6.20
2022-09-28T16:33:58.429Z,9.40
2022-09-28T16:36:29.398Z,9.40
2022-09-28T16:38:56.536Z,60.50
2022-09-28T16:41:26.940Z,11.80
2022-09-28T16:43:58.747Z,44.60
2022-09-28T16:46:31.896Z,52.40
2022-09-28T16:48:59.397Z,14.60
2022-09-28T16:51:26.218Z,12.50
2022-09-28T16:54:11.519Z,50.80
2022-09-28T16:56:38.408Z,10.20
2022-09-28T16:59:05.506Z,10.80
2022-09-28T17:01:32.574Z,10.70
2022-09-28T17:03:59.439Z,41.40
2022-09-28T17:06:26.994Z,25.40
2022-09-28T17:08:57.846Z,26.10
2022-09-28T17:11:25.554Z,26.40
2022-09-28T17:13:58.358Z,31.00
2022-09-28T17:19:19.416Z,41.80
2022-09-28T17:21:46.542Z,36.80
2022-09-28T17:24:13.372Z,24.90
2022-09-28T17:26:43.796Z,22.00
2022-09-28T17:29:13.999Z,20.50
2022-09-28T17:31:45.427Z,29.10
2022-09-28T17:34:15.420Z,31.10
2022-09-28T17:36:43.221Z,30.50
2022-09-28T17:39:12.932Z,42.90
2022-09-28T17:41:40.553Z,33.30
2022-09-28T17:44:08.078Z,29.60
2022-09-28T17:46:45.354Z,28.70
2022-09-28T17:49:12.678Z,26.00
2022-09-28T17:51:41.347Z,24.30
2022-09-28T17:54:08.726Z,18.10
2022-09-28T17:56:36.258Z,19.40
2022-09-28T17:59:06.076Z,38.50
2022-09-28T18:01:34.678Z,40.20
2022-09-28T18:04:04.455Z,53.20
2022-09-28T18:06:32.944Z,30.30
